Time;durP1;ratioP1;P1;durP2;ratioP2;P2;SDS_P1;SDS_P2;PMS_P1;PMS_P2;Temp;Humidity;BMP_temperature;BMP_pressure;BME280_temperature;BME280_humidity;BME280_pressure;Samples;Min_cycle;Max_cycle;Signal;HPM_P1;HPM_P2
2023/03/15 00:00:50;;;;;;;;;;;;;;;;;;5076169;28;19908;-73
2023/03/15 00:03:16;;;;;;;;;;;;;;;;;;5076132;28;19915;-71
2023/03/15 00:05:42;;;;;;;;;;;;;;;;;;5093843;28;19951;-72
2023/03/15 00:08:08;;;;;;;;;;;;;;;;;;5076177;28;19908;-71
2023/03/15 00:10:34;;;;;;;;;;;;;;;;;;5094337;28;19912;-71
2023/03/15 00:13:00;;;;;;;;;;;;;;;;;;5093882;28;19955;-71
2023/03/15 00:15:26;;;;;;;;;;;;;;;;;;5094600;28;19912;-72
2023/03/15 00:17:52;;;;;;;;;;;;;;;;;;5094046;28;19953;-71
2023/03/15 00:20:18;;;;;;;;;;;;;;;;;;5093672;28;19908;-71
2023/03/15 00:22:44;;;;;;;;;;;;;;;;;;5075863;28;20455;-71
2023/03/15 00:25:10;;;;;;;;;;;;;;;;;;5093947;28;19983;-71
2023/03/15 00:27:36;;;;;;;;;;;;;;;;;;5093603;28;20360;-71
2023/03/15 00:30:02;;;;;;;;;;;;;;;;;;5076008;28;19939;-71
2023/03/15 00:32:28;;;;;;;;;;;;;;;;;;5075793;28;19916;-72
2023/03/15 00:34:54;;;;;;;;;;;;;;;;;;5075088;28;20022;-71
2023/03/15 00:37:20;;;;;;;;;;;;;;;;;;5093864;28;19916;-71
2023/03/15 00:39:46;;;;;;;;;;;;;;;;;;5094131;28;19908;-71
2023/03/15 00:42:14;;;;;;;;;;;;;;;;;;5075363;28;19931;-71
2023/03/15 00:44:40;;;;;;;;;;;;;;;;;;5075733;28;19912;-71
2023/03/15 00:47:06;;;;;;;;;;;;;;;;;;5093763;28;20386;-71
2023/03/15 00:49:32;;;;;;;;;;;;;;;;;;5075222;28;20364;-71
2023/03/15 00:51:58;;;;;;;;;;;;;;;;;;5093777;28;20049;-71
2023/03/15 00:54:24;;;;;;;;;;;;;;;;;;5093840;28;20359;-71
2023/03/15 00:56:50;;;;;;;;;;;;;;;;;;5076650;28;20364;-71
2023/03/15 00:59:16;;;;;;;;;;;;;;;;;;5079624;28;20347;-72
2023/03/15 01:01:43;;;;;;;;;;;;;;;;;;5097316;28;19912;-71
2023/03/15 01:04:10;;;;;;;;;;;;;;;;;;5097746;28;20339;-71
2023/03/15 01:06:36;;;;;;;;;;;;;;;;;;5098190;28;19976;-71
2023/03/15 01:09:02;;;;;;;;;;;;;;;;;;5097149;28;20378;-71
2023/03/15 01:11:28;;;;;;;;;;;;;;;;;;5079376;28;19908;-71
2023/03/15 01:13:54;;;;;;;;;;;;;;;;;;5097478;28;20360;-72
2023/03/15 01:16:20;;;;;;;;;;;;;;;;;;5097164;28;19963;-72
2023/03/15 01:18:46;;;;;;;;;;;;;;;;;;5097531;28;19916;-72
2023/03/15 01:21:12;;;;;;;;;;;;;;;;;;5097446;28;19908;-71
2023/03/15 01:23:38;;;;;;;;;;;;;;;;;;5096959;28;19974;-72
2023/03/15 01:26:04;;;;;;;;;;;;;;;;;;5097352;28;19978;-71
2023/03/15 01:28:30;;;;;;;;;;;;;;;;;;5097220;28;19909;-72
2023/03/15 01:30:56;;;;;;;;;;;;;;;;;;5096783;28;19939;-71
2023/03/15 01:33:22;;;;;;;;;;;;;;;;;;5097214;28;19954;-71
2023/03/15 01:35:48;;;;;;;;;;;;;;;;;;5097058;28;20372;-72
2023/03/15 01:38:14;;;;;;;;;;;;;;;;;;5096637;28;20338;-71
2023/03/15 01:40:40;;;;;;;;;;;;;;;;;;5097008;28;19912;-71
2023/03/15 01:43:06;;;;;;;;;;;;;;;;;;5097511;28;19946;-71
2023/03/15 01:45:32;;;;;;;;;;;;;;;;;;5096435;28;20269;-71
2023/03/15 01:47:58;;;;;;;;;;;;;;;;;;5078650;28;19916;-71
2023/03/15 01:50:24;;;;;;;;;;;;;;;;;;5096857;28;19912;-71
2023/03/15 01:52:50;;;;;;;;;;;;;;;;;;5096320;28;20356;-71
2023/03/15 01:55:16;;;;;;;;;;;;;;;;;;5096635;28;19957;-71
2023/03/15 01:57:41;;;;;;;;;;;;;;;;;;5096444;28;19981;-72
2023/03/15 02:00:10;;;;;;;;;;;;;;;;;;5096589;28;19908;-71
2023/03/15 02:02:36;;;;;;;;;;;;;;;;;;5078614;28;19941;-72
2023/03/15 02:05:03;;;;;;;;;;;;;;;;;;5096134;28;20398;-71
2023/03/15 02:07:33;;;;;;;;;;;;;;;;;;5077848;28;19909;-71
2023/03/15 02:09:59;;;;;;;;;;;;;;;;;;5096675;28;19944;-71
2023/03/15 02:12:25;;;;;;;;;;;;;;;;;;5095990;28;19951;-71
2023/03/15 02:14:52;;;;;;;;;;;;;;;;;;5096283;28;19908;-71
2023/03/15 02:17:18;;;;;;;;;;;;;;;;;;5096252;28;19912;-71
2023/03/15 02:19:44;;;;;;;;;;;;;;;;;;5095857;28;20360;-72
2023/03/15 02:22:11;;;;;;;;;;;;;;;;;;5078108;28;20431;-72
2023/03/15 02:24:36;;;;;;;;;;;;;;;;;;5096223;28;19961;-72
2023/03/15 02:27:02;;;;;;;;;;;;;;;;;;5095788;28;20330;-72
2023/03/15 02:29:28;;;;;;;;;;;;;;;;;;5096039;28;20001;-72
2023/03/15 02:31:54;;;;;;;;;;;;;;;;;;5096091;28;19919;-72
2023/03/15 02:34:24;;;;;;;;;;;;;;;;;;5095490;28;20272;-71
2023/03/15 02:36:50;;;;;;;;;;;;;;;;;;5096176;28;20312;-72
2023/03/15 02:39:16;;;;;;;;;;;;;;;;;;5095947;28;19916;-72
2023/03/15 02:41:42;;;;;;;;;;;;;;;;;;5095387;28;19908;-72
2023/03/15 02:44:08;;;;;;;;;;;;;;;;;;5095897;28;20279;-72
2023/03/15 02:46:34;;;;;;;;;;;;;;;;;;5095745;28;20292;-72
2023/03/15 02:48:59;;;;;;;;;;;;;;;;;;5095305;28;20390;-73
2023/03/15 02:51:25;;;;;;;;;;;;;;;;;;5095594;28;20364;-72
2023/03/15 02:53:51;;;;;;;;;;;;;;;;;;5095480;28;19939;-72
2023/03/15 02:56:17;;;;;;;;;;;;;;;;;;5095101;28;19916;-72
2023/03/15 02:58:46;;;;;;;;;;;;;;;;;;5095723;28;19908;-72
2023/03/15 03:01:12;;;;;;;;;;;;;;;;;;5094990;28;20067;-72
2023/03/15 03:03:38;;;;;;;;;;;;;;;;;;5095909;28;20004;-72
2023/03/15 03:06:04;;;;;;;;;;;;;;;;;;5095283;28;19977;-72
2023/03/15 03:08:30;;;;;;;;;;;;;;;;;;5076659;28;19940;-72
2023/03/15 03:10:56;;;;;;;;;;;;;;;;;;5095490;28;19938;-72
2023/03/15 03:13:22;;;;;;;;;;;;;;;;;;5076949;28;19908;-71
2023/03/15 03:15:48;;;;;;;;;;;;;;;;;;5095046;28;19916;-72
2023/03/15 03:18:14;;;;;;;;;;;;;;;;;;5095075;28;19955;-72
2023/03/15 03:20:40;;;;;;;;;;;;;;;;;;5094163;28;19909;-72
2023/03/15 03:23:05;;;;;;;;;;;;;;;;;;5094665;28;19908;-72
2023/03/15 03:25:31;;;;;;;;;;;;;;;;;;5095223;28;19915;-72
2023/03/15 03:27:57;;;;;;;;;;;;;;;;;;5094905;28;19947;-72
2023/03/15 03:30:23;;;;;;;;;;;;;;;;;;5094559;28;19908;-72
2023/03/15 03:32:49;;;;;;;;;;;;;;;;;;5094837;28;20003;-72
2023/03/15 03:35:15;;;;;;;;;;;;;;;;;;5094505;28;19920;-72
2023/03/15 03:37:41;;;;;;;;;;;;;;;;;;5094323;28;20284;-72
2023/03/15 03:40:08;;;;;;;;;;;;;;;;;;5094684;28;19908;-72
2023/03/15 03:42:33;;;;;;;;;;;;;;;;;;5094666;28;19923;-72
2023/03/15 03:44:59;;;;;;;;;;;;;;;;;;5094163;28;19908;-72
2023/03/15 03:47:25;;;;;;;;;;;;;;;;;;5094556;28;19908;-72
2023/03/15 03:49:51;;;;;;;;;;;;;;;;;;5094425;28;20284;-72
2023/03/15 03:52:17;;;;;;;;;;;;;;;;;;5075877;28;19957;-71
2023/03/15 03:54:43;;;;;;;;;;;;;;;;;;5094338;28;20515;-72
2023/03/15 03:57:09;;;;;;;;;;;;;;;;;;5094368;28;20257;-72
2023/03/15 03:59:35;;;;;;;;;;;;;;;;;;5076130;28;20280;-72
2023/03/15 04:02:01;;;;;;;;;;;;;;;;;;5094290;28;19915;-72
2023/03/15 04:04:27;;;;;;;;;;;;;;;;;;5094080;28;19916;-72
2023/03/15 04:06:53;;;;;;;;;;;;;;;;;;5094276;28;19908;-72
2023/03/15 04:09:20;;;;;;;;;;;;;;;;;;5094182;28;19927;-72
2023/03/15 04:11:46;;;;;;;;;;;;;;;;;;5093754;28;19940;-72
2023/03/15 04:14:12;;;;;;;;;;;;;;;;;;5094159;28;19967;-71
2023/03/15 04:16:38;;;;;;;;;;;;;;;;;;5094111;28;19916;-72
2023/03/15 04:19:04;;;;;;;;;;;;;;;;;;5093875;28;19912;-72
2023/03/15 04:21:30;;;;;;;;;;;;;;;;;;5094245;28;19994;-72
2023/03/15 04:23:57;;;;;;;;;;;;;;;;;;5094277;28;19909;-72
2023/03/15 04:26:25;;;;;;;;;;;;;;;;;;5093637;28;20385;-72
2023/03/15 04:28:51;;;;;;;;;;;;;;;;;;5093955;28;19912;-72
2023/03/15 04:31:17;;;;;;;;;;;;;;;;;;5075602;28;20007;-72
2023/03/15 04:33:43;;;;;;;;;;;;;;;;;;5093398;28;19908;-72
2023/03/15 04:36:09;;;;;;;;;;;;;;;;;;5075446;28;19932;-72
2023/03/15 04:38:34;;;;;;;;;;;;;;;;;;5093864;28;19909;-72
2023/03/15 04:41:00;;;;;;;;;;;;;;;;;;5075462;28;19998;-72
2023/03/15 04:43:26;;;;;;;;;;;;;;;;;;5094430;28;20371;-72
2023/03/15 04:45:52;;;;;;;;;;;;;;;;;;5093739;28;20347;-72
2023/03/15 04:48:18;;;;;;;;;;;;;;;;;;5075197;28;20314;-72
2023/03/15 04:50:44;;;;;;;;;;;;;;;;;;5093743;28;20283;-72
2023/03/15 04:53:10;;;;;;;;;;;;;;;;;;5093701;28;20280;-71
2023/03/15 04:55:36;;;;;;;;;;;;;;;;;;5093189;28;20011;-72
2023/03/15 04:58:02;;;;;;;;;;;;;;;;;;5093979;28;19908;-72
2023/03/15 05:00:28;;;;;;;;;;;;;;;;;;5093558;28;19908;-72
2023/03/15 05:02:54;;;;;;;;;;;;;;;;;;5075534;28;19951;-72
2023/03/15 05:05:20;;;;;;;;;;;;;;;;;;5075488;28;19908;-72
2023/03/15 05:07:46;;;;;;;;;;;;;;;;;;5093489;28;19908;-72
2023/03/15 05:10:12;;;;;;;;;;;;;;;;;;5075550;28;19965;-72
2023/03/15 05:12:38;;;;;;;;;;;;;;;;;;5093879;28;19908;-73
2023/03/15 05:15:04;;;;;;;;;;;;;;;;;;5093156;28;19923;-71
2023/03/15 05:17:32;;;;;;;;;;;;;;;;;;5075376;28;19912;-72
2023/03/15 05:20:00;;;;;;;;;;;;;;;;;;5093499;28;19915;-72
2023/03/15 05:22:26;;;;;;;;;;;;;;;;;;5091337;28;19909;-72
2023/03/15 05:24:55;;;;;;;;;;;;;;;;;;5092315;28;19908;-71
2023/03/15 05:27:21;;;;;;;;;;;;;;;;;;5092739;28;19908;-73
2023/03/15 05:29:47;;;;;;;;;;;;;;;;;;5093042;28;20364;-72
2023/03/15 05:32:13;;;;;;;;;;;;;;;;;;5093170;28;20364;-72
2023/03/15 05:34:39;;;;;;;;;;;;;;;;;;5091737;28;20460;-70
2023/03/15 05:37:05;;;;;;;;;;;;;;;;;;5092756;28;19962;-71
2023/03/15 05:39:33;;;;;;;;;;;;;;;;;;5093211;28;19916;-71
2023/03/15 05:41:59;;;;;;;;;;;;;;;;;;5093604;28;19909;-72
2023/03/15 05:44:25;;;;;;;;;;;;;;;;;;5096369;28;19908;-71
2023/03/15 05:46:51;;;;;;;;;;;;;;;;;;5096479;28;19915;-71
2023/03/15 05:49:17;;;;;;;;;;;;;;;;;;5096172;28;19998;-72
2023/03/15 05:51:43;;;;;;;;;;;;;;;;;;5096485;28;19908;-71
2023/03/15 05:54:09;;;;;;;;;;;;;;;;;;5096910;28;19908;-72
2023/03/15 05:56:35;;;;;;;;;;;;;;;;;;5096605;28;19916;-71
2023/03/15 05:59:03;;;;;;;;;;;;;;;;;;5096164;28;20283;-72
2023/03/15 06:01:29;;;;;;;;;;;;;;;;;;5078323;28;19909;-72
2023/03/15 06:03:55;;;;;;;;;;;;;;;;;;5096097;28;19908;-72
2023/03/15 06:06:21;;;;;;;;;;;;;;;;;;5078342;28;19908;-71
2023/03/15 06:08:47;;;;;;;;;;;;;;;;;;5096607;28;19915;-72
2023/03/15 06:11:13;;;;;;;;;;;;;;;;;;5096189;28;20325;-72
2023/03/15 06:13:38;;;;;;;;;;;;;;;;;;5093025;28;20291;-75
2023/03/15 06:16:04;;;;;;;;;;;;;;;;;;5096118;28;20296;-77
2023/03/15 06:18:30;;;;;;;;;;;;;;;;;;5094174;28;20295;-75
2023/03/15 06:20:56;;;;;;;;;;;;;;;;;;5095768;28;19916;-70
2023/03/15 06:23:22;;;;;;;;;;;;;;;;;;5077043;28;19908;-67
2023/03/15 06:25:48;;;;;;;;;;;;;;;;;;5093680;28;19908;-68
2023/03/15 06:28:14;;;;;;;;;;;;;;;;;;5094345;28;19912;-68
2023/03/15 06:30:40;;;;;;;;;;;;;;;;;;5092923;28;19908;-68
2023/03/15 06:33:08;;;;;;;;;;;;;;;;;;5091717;28;19912;-68
2023/03/15 06:35:33;;;;;;;;;;;;;;;;;;5071679;28;20330;-68
2023/03/15 06:38:01;;;;;;;;;;;;;;;;;;5087736;28;19916;-68
2023/03/15 06:40:28;;;;;;;;;;;;;;;;;;5086838;28;19965;-68
2023/03/15 06:42:54;;;;;;;;;;;;;;;;;;5091823;28;19912;-68
2023/03/15 06:45:20;;;;;;;;;;;;;;;;;;5091889;28;19908;-68
2023/03/15 06:47:46;;;;;;;;;;;;;;;;;;5093267;28;19908;-66
2023/03/15 06:50:11;;;;;;;;;;;;;;;;;;5092147;28;20007;-69
2023/03/15 06:52:37;;;;;;;;;;;;;;;;;;5093421;28;19913;-67
2023/03/15 06:55:04;;;;;;;;;;;;;;;;;;5092758;28;19919;-69
2023/03/15 06:57:29;;;;;;;;;;;;;;;;;;5093128;28;19912;-68
2023/03/15 06:59:57;;;;;;;;;;;;;;;;;;5073735;28;19912;-68
2023/03/15 07:02:23;;;;;;;;;;;;;;;;;;5093703;28;19912;-67
2023/03/15 07:04:49;;;;;;;;;;;;;;;;;;5093733;28;19935;-66
2023/03/15 07:07:15;;;;;;;;;;;;;;;;;;5075139;28;19920;-68
2023/03/15 07:09:41;;;;;;;;;;;;;;;;;;5075262;28;19995;-69
2023/03/15 07:12:07;;;;;;;;;;;;;;;;;;5093698;28;20038;-68
2023/03/15 07:14:33;;;;;;;;;;;;;;;;;;5093655;28;19908;-69
2023/03/15 07:16:59;;;;;;;;;;;;;;;;;;5090643;28;19920;-67
2023/03/15 07:19:25;;;;;;;;;;;;;;;;;;5093911;28;19920;-67
2023/03/15 07:21:51;;;;;;;;;;;;;;;;;;5076783;28;20361;-67
2023/03/15 07:24:17;;;;;;;;;;;;;;;;;;5093566;28;19912;-68
2023/03/15 07:26:43;;;;;;;;;;;;;;;;;;5075409;28;19909;-66
2023/03/15 07:29:09;;;;;;;;;;;;;;;;;;5092678;28;19912;-66
2023/03/15 07:31:36;;;;;;;;;;;;;;;;;;5093893;28;20010;-68
2023/03/15 07:34:03;;;;;;;;;;;;;;;;;;5093422;28;19908;-66
2023/03/15 07:36:31;;;;;;;;;;;;;;;;;;5093073;28;19965;-67
2023/03/15 07:38:57;;;;;;;;;;;;;;;;;;5093034;28;19908;-64
2023/03/15 07:41:23;;;;;;;;;;;;;;;;;;5093854;28;20413;-64
2023/03/15 07:43:52;;;;;;;;;;;;;;;;;;5087670;28;20256;-67
2023/03/15 07:46:20;;;;;;;;;;;;;;;;;;5093644;28;19908;-65
2023/03/15 07:48:46;;;;;;;;;;;;;;;;;;5093716;28;19912;-67
2023/03/15 07:51:12;;;;;;;;;;;;;;;;;;5093061;28;20468;-67
2023/03/15 07:53:38;;;;;;;;;;;;;;;;;;5093400;28;19908;-67
2023/03/15 07:56:06;;;;;;;;;;;;;;;;;;5093000;28;19920;-67
2023/03/15 07:58:32;;;;;;;;;;;;;;;;;;5091073;28;19912;-66
2023/03/15 08:00:58;;;;;;;;;;;;;;;;;;5072517;28;19915;-67
2023/03/15 08:03:27;;;;;;;;;;;;;;;;;;5092121;28;20332;-68
2023/03/15 08:05:53;;;;;;;;;;;;;;;;;;5067870;28;20845;-68
2023/03/15 08:08:20;;;;;;;;;;;;;;;;;;5087881;28;19908;-67
2023/03/15 08:10:46;;;;;;;;;;;;;;;;;;5068879;28;19935;-66
2023/03/15 08:13:12;;;;;;;;;;;;;;;;;;5070413;28;19919;-67
2023/03/15 08:15:38;;;;;;;;;;;;;;;;;;5090212;28;19916;-68
2023/03/15 08:18:05;;;;;;;;;;;;;;;;;;5085960;28;20383;-67
2023/03/15 08:20:32;;;;;;;;;;;;;;;;;;5080619;28;20338;-66
2023/03/15 08:23:01;;;;;;;;;;;;;;;;;;5089247;28;19912;-67
2023/03/15 08:25:30;;;;;;;;;;;;;;;;;;5089660;28;19908;-64
2023/03/15 08:27:56;;;;;;;;;;;;;;;;;;5091683;28;19954;-65
2023/03/15 08:30:22;;;;;;;;;;;;;;;;;;5087213;28;19911;-68
2023/03/15 08:32:48;;;;;;;;;;;;;;;;;;5073101;28;19959;-69
2023/03/15 08:35:14;;;;;;;;;;;;;;;;;;5091239;28;20288;-68
2023/03/15 08:37:40;;;;;;;;;;;;;;;;;;5091904;28;19947;-70
2023/03/15 08:40:08;;;;;;;;;;;;;;;;;;5073185;28;19912;-69
2023/03/15 08:42:34;;;;;;;;;;;;;;;;;;5074140;28;20376;-69
2023/03/15 08:45:00;;;;;;;;;;;;;;;;;;5090097;28;19994;-68
2023/03/15 08:47:26;;;;;;;;;;;;;;;;;;5072464;28;19920;-68
2023/03/15 08:49:52;;;;;;;;;;;;;;;;;;5073615;28;19912;-69
2023/03/15 08:52:18;;;;;;;;;;;;;;;;;;5091635;28;19909;-68
2023/03/15 08:54:44;;;;;;;;;;;;;;;;;;5072331;28;19916;-68
2023/03/15 08:57:11;;;;;;;;;;;;;;;;;;5072249;28;19920;-67
2023/03/15 08:59:37;;;;;;;;;;;;;;;;;;5090781;28;19912;-68
2023/03/15 09:02:03;;;;;;;;;;;;;;;;;;5090234;28;20279;-69
2023/03/15 09:04:29;;;;;;;;;;;;;;;;;;5087529;28;20820;-69
2023/03/15 09:06:55;;;;;;;;;;;;;;;;;;5073187;28;19912;-68
2023/03/15 09:09:24;;;;;;;;;;;;;;;;;;5091890;28;19908;-67
2023/03/15 09:11:51;;;;;;;;;;;;;;;;;;5091258;28;19974;-67
2023/03/15 09:14:17;;;;;;;;;;;;;;;;;;5090544;28;19916;-68
2023/03/15 09:16:43;;;;;;;;;;;;;;;;;;5090589;28;20004;-68
2023/03/15 09:19:09;;;;;;;;;;;;;;;;;;5095158;28;19912;-68
2023/03/15 09:21:36;;;;;;;;;;;;;;;;;;5095521;28;19918;-69
2023/03/15 09:24:02;;;;;;;;;;;;;;;;;;5096453;28;19908;-68
2023/03/15 09:26:28;;;;;;;;;;;;;;;;;;5096532;28;19928;-68
2023/03/15 09:28:54;;;;;;;;;;;;;;;;;;5095590;28;19920;-68
2023/03/15 09:31:20;;;;;;;;;;;;;;;;;;5096395;28;19958;-66
2023/03/15 09:33:46;;;;;;;;;;;;;;;;;;5096228;28;19908;-68
2023/03/15 09:36:12;;;;;;;;;;;;;;;;;;5095559;28;19973;-67
2023/03/15 09:38:40;;;;;;;;;;;;;;;;;;5096397;28;20283;-69
2023/03/15 09:41:09;;;;;;;;;;;;;;;;;;5093963;28;19908;-69
2023/03/15 09:43:35;;;;;;;;;;;;;;;;;;5092076;28;19963;-70
2023/03/15 09:46:00;;;;;;;;;;;;;;;;;;5074599;28;19908;-70
2023/03/15 09:48:26;;;;;;;;;;;;;;;;;;5075716;28;19919;-69
2023/03/15 09:50:52;;;;;;;;;;;;;;;;;;5093950;28;19919;-69
2023/03/15 09:53:18;;;;;;;;;;;;;;;;;;5092820;28;19943;-69
2023/03/15 09:55:45;;;;;;;;;;;;;;;;;;5094028;28;20364;-69
2023/03/15 09:58:12;;;;;;;;;;;;;;;;;;5092102;28;19908;-69
2023/03/15 10:00:38;;;;;;;;;;;;;;;;;;5093648;28;19940;-67
2023/03/15 10:03:08;;;;;;;;;;;;;;;;;;5092363;28;20004;-68
2023/03/15 10:05:34;;;;;;;;;;;;;;;;;;5075708;28;19916;-69
2023/03/15 10:08:00;;;;;;;;;;;;;;;;;;5072790;28;19915;-68
2023/03/15 10:10:26;;;;;;;;;;;;;;;;;;5058350;28;19927;-69
2023/03/15 10:12:52;;;;;;;;;;;;;;;;;;5074450;28;19934;-67
2023/03/15 10:15:18;;;;;;;;;;;;;;;;;;5093962;28;19912;-69
2023/03/15 10:17:45;;;;;;;;;;;;;;;;;;5092866;28;19912;-72
2023/03/15 10:20:11;;;;;;;;;;;;;;;;;;5093232;28;19912;-70
2023/03/15 10:22:37;;;;;;;;;;;;;;;;;;5075689;28;19908;-70
2023/03/15 10:25:06;;;;;;;;;;;;;;;;;;5091595;28;19908;-73
2023/03/15 10:27:32;;;;;;;;;;;;;;;;;;5090536;28;20348;-70
2023/03/15 10:29:58;;;;;;;;;;;;;;;;;;5089329;28;20535;-70
2023/03/15 10:32:24;;;;;;;;;;;;;;;;;;5091366;28;20475;-69
2023/03/15 10:34:51;;;;;;;;;;;;;;;;;;5092325;28;19987;-69
2023/03/15 10:37:16;;;;;;;;;;;;;;;;;;5074148;28;19980;-69
2023/03/15 10:39:45;;;;;;;;;;;;;;;;;;5072695;28;20346;-69
2023/03/15 10:42:11;;;;;;;;;;;;;;;;;;5093319;28;19908;-69
2023/03/15 10:44:37;;;;;;;;;;;;;;;;;;5075320;28;19915;-70
2023/03/15 10:47:05;;;;;;;;;;;;;;;;;;5093995;28;19915;-69
2023/03/15 10:49:32;;;;;;;;;;;;;;;;;;5094503;28;20272;-69
2023/03/15 10:51:58;;;;;;;;;;;;;;;;;;5092787;28;19908;-69
2023/03/15 10:54:24;;;;;;;;;;;;;;;;;;5092078;28;19919;-70
2023/03/15 10:56:49;;;;;;;;;;;;;;;;;;5092165;28;20007;-70
2023/03/15 10:59:16;;;;;;;;;;;;;;;;;;5092839;28;19999;-70
2023/03/15 11:01:43;;;;;;;;;;;;;;;;;;5074357;28;20319;-67
2023/03/15 11:04:09;;;;;;;;;;;;;;;;;;5093173;28;19990;-70
2023/03/15 11:06:35;;;;;;;;;;;;;;;;;;5092643;28;20394;-70
2023/03/15 11:09:01;;;;;;;;;;;;;;;;;;5088523;28;19927;-70
2023/03/15 11:11:27;;;;;;;;;;;;;;;;;;5074463;28;19911;-69
2023/03/15 11:13:53;;;;;;;;;;;;;;;;;;5074670;28;19958;-71
2023/03/15 11:16:19;;;;;;;;;;;;;;;;;;5073716;28;19916;-69
2023/03/15 11:18:45;;;;;;;;;;;;;;;;;;5091695;28;19908;-70
2023/03/15 11:21:11;;;;;;;;;;;;;;;;;;5072191;28;20429;-70
2023/03/15 11:23:37;;;;;;;;;;;;;;;;;;5090522;28;20307;-69
2023/03/15 11:26:03;;;;;;;;;;;;;;;;;;5091049;28;19909;-70
2023/03/15 11:28:29;;;;;;;;;;;;;;;;;;5090678;28;19908;-70
2023/03/15 11:30:55;;;;;;;;;;;;;;;;;;5091618;28;19911;-70
2023/03/15 11:33:21;;;;;;;;;;;;;;;;;;5089654;28;19915;-69
2023/03/15 11:35:48;;;;;;;;;;;;;;;;;;5085927;28;19920;-70
2023/03/15 11:38:14;;;;;;;;;;;;;;;;;;5072100;28;19912;-69
2023/03/15 11:40:40;;;;;;;;;;;;;;;;;;5090579;28;19924;-70
2023/03/15 11:43:07;;;;;;;;;;;;;;;;;;5093005;28;19916;-69
2023/03/15 11:45:33;;;;;;;;;;;;;;;;;;5092673;28;19908;-69
2023/03/15 11:47:59;;;;;;;;;;;;;;;;;;5089707;28;19923;-70
2023/03/15 11:50:25;;;;;;;;;;;;;;;;;;5072000;28;20372;-69
2023/03/15 11:52:55;;;;;;;;;;;;;;;;;;5075145;28;19916;-69
2023/03/15 11:55:21;;;;;;;;;;;;;;;;;;5088562;28;20391;-77
2023/03/15 11:57:47;;;;;;;;;;;;;;;;;;5070269;28;20010;-73
2023/03/15 12:00:13;;;;;;;;;;;;;;;;;;5089857;28;19908;-68
2023/03/15 12:02:39;;;;;;;;;;;;;;;;;;5074366;28;19908;-68
2023/03/15 12:05:05;;;;;;;;;;;;;;;;;;5086294;28;19918;-69
2023/03/15 12:07:32;;;;;;;;;;;;;;;;;;5091317;28;19911;-68
2023/03/15 12:10:01;;;;;;;;;;;;;;;;;;5092143;28;19915;-69
2023/03/15 12:12:27;;;;;;;;;;;;;;;;;;5087718;28;20342;-69
2023/03/15 12:14:53;;;;;;;;;;;;;;;;;;5074473;28;19943;-69
2023/03/15 12:17:19;;;;;;;;;;;;;;;;;;5091901;28;20425;-69
2023/03/15 12:19:45;;;;;;;;;;;;;;;;;;5092329;28;20279;-69
2023/03/15 12:22:11;;;;;;;;;;;;;;;;;;5090733;28;19916;-70
2023/03/15 12:24:43;;;;;;;;;;;;;;;;;;5072599;28;19908;-69
2023/03/15 12:27:10;;;;;;;;;;;;;;;;;;5091718;28;19931;-68
2023/03/15 12:29:37;;;;;;;;;;;;;;;;;;5092424;28;19912;-69
2023/03/15 12:32:03;;;;;;;;;;;;;;;;;;5090016;28;19916;-68
2023/03/15 12:34:30;;;;;;;;;;;;;;;;;;5091475;28;19912;-68
2023/03/15 12:36:56;;;;;;;;;;;;;;;;;;5073534;28;19978;-68
2023/03/15 12:39:22;;;;;;;;;;;;;;;;;;5091585;28;20368;-68
2023/03/15 12:41:48;;;;;;;;;;;;;;;;;;5073223;28;19958;-68
2023/03/15 12:44:14;;;;;;;;;;;;;;;;;;5091413;28;19912;-67
2023/03/15 12:46:40;;;;;;;;;;;;;;;;;;5091877;28;19915;-68
2023/03/15 12:49:06;;;;;;;;;;;;;;;;;;5072715;28;20011;-69
2023/03/15 12:51:32;;;;;;;;;;;;;;;;;;5074816;28;19966;-68
2023/03/15 12:53:58;;;;;;;;;;;;;;;;;;5078564;28;19908;-68
2023/03/15 12:56:24;;;;;;;;;;;;;;;;;;5096601;28;20019;-67
2023/03/15 12:58:50;;;;;;;;;;;;;;;;;;5095120;28;20344;-70
2023/03/15 13:01:16;;;;;;;;;;;;;;;;;;5077147;28;20391;-69
2023/03/15 13:03:42;;;;;;;;;;;;;;;;;;5077476;28;20346;-68
2023/03/15 13:06:09;;;;;;;;;;;;;;;;;;5076941;28;19997;-69
2023/03/15 13:08:35;;;;;;;;;;;;;;;;;;5096692;28;20368;-70
2023/03/15 13:11:01;;;;;;;;;;;;;;;;;;5092885;28;19915;-69
2023/03/15 13:13:27;;;;;;;;;;;;;;;;;;5096379;28;19939;-69
2023/03/15 13:15:53;;;;;;;;;;;;;;;;;;5096134;28;19916;-69
2023/03/15 13:18:19;;;;;;;;;;;;;;;;;;5095272;28;19908;-69
2023/03/15 13:20:45;;;;;;;;;;;;;;;;;;5095037;28;19912;-70
2023/03/15 13:23:10;;;;;;;;;;;;;;;;;;5095129;28;19999;-70
2023/03/15 13:25:37;;;;;;;;;;;;;;;;;;5096695;28;19955;-69
2023/03/15 13:28:03;;;;;;;;;;;;;;;;;;5094896;28;19954;-70
2023/03/15 13:30:29;;;;;;;;;;;;;;;;;;5096591;28;20360;-71
2023/03/15 13:32:55;;;;;;;;;;;;;;;;;;5084121;28;20320;-68
2023/03/15 13:35:21;;;;;;;;;;;;;;;;;;5095509;28;19920;-70
2023/03/15 13:37:47;;;;;;;;;;;;;;;;;;5095221;28;19912;-70
2023/03/15 13:40:16;;;;;;;;;;;;;;;;;;5076423;28;20325;-71
2023/03/15 13:42:42;;;;;;;;;;;;;;;;;;5095405;28;20371;-70
2023/03/15 13:45:08;;;;;;;;;;;;;;;;;;5077455;28;19908;-68
2023/03/15 13:47:34;;;;;;;;;;;;;;;;;;5095018;28;20007;-69
2023/03/15 13:50:00;;;;;;;;;;;;;;;;;;5094789;28;19908;-71
2023/03/15 13:52:26;;;;;;;;;;;;;;;;;;5094330;28;19912;-69
2023/03/15 13:54:52;;;;;;;;;;;;;;;;;;5093382;28;19908;-70
2023/03/15 13:57:18;;;;;;;;;;;;;;;;;;5076207;28;20006;-70
2023/03/15 13:59:44;;;;;;;;;;;;;;;;;;5093990;28;20260;-69
2023/03/15 14:02:10;;;;;;;;;;;;;;;;;;5076046;28;19912;-69
2023/03/15 14:04:39;;;;;;;;;;;;;;;;;;5076371;28;19920;-70
2023/03/15 14:07:05;;;;;;;;;;;;;;;;;;5095547;28;19908;-68
2023/03/15 14:09:31;;;;;;;;;;;;;;;;;;5094544;28;20276;-68
2023/03/15 14:11:57;;;;;;;;;;;;;;;;;;5077369;28;19948;-69
2023/03/15 14:14:23;;;;;;;;;;;;;;;;;;5094720;28;19919;-68
2023/03/15 14:16:49;;;;;;;;;;;;;;;;;;5075930;28;19916;-67
2023/03/15 14:19:15;;;;;;;;;;;;;;;;;;5095266;28;20024;-69
2023/03/15 14:21:43;;;;;;;;;;;;;;;;;;5094765;28;19908;-70
2023/03/15 14:24:09;;;;;;;;;;;;;;;;;;5076116;28;20032;-70
2023/03/15 14:26:35;;;;;;;;;;;;;;;;;;5093714;28;20600;-69
2023/03/15 14:29:00;;;;;;;;;;;;;;;;;;5075785;28;20375;-70
2023/03/15 14:31:26;;;;;;;;;;;;;;;;;;5075307;28;19915;-69
2023/03/15 14:33:53;;;;;;;;;;;;;;;;;;5094442;28;19909;-70
2023/03/15 14:36:19;;;;;;;;;;;;;;;;;;5075428;28;19920;-69
2023/03/15 14:38:45;;;;;;;;;;;;;;;;;;5093336;28;19908;-70
2023/03/15 14:41:11;;;;;;;;;;;;;;;;;;5075467;28;19998;-70
2023/03/15 14:43:37;;;;;;;;;;;;;;;;;;5094326;28;19915;-70
2023/03/15 14:46:02;;;;;;;;;;;;;;;;;;5093627;28;19909;-70
2023/03/15 14:48:28;;;;;;;;;;;;;;;;;;5092041;28;19995;-69
2023/03/15 14:50:54;;;;;;;;;;;;;;;;;;5094690;28;19934;-69
2023/03/15 14:53:20;;;;;;;;;;;;;;;;;;5094714;28;19915;-69
2023/03/15 14:55:46;;;;;;;;;;;;;;;;;;5094498;28;19952;-69
2023/03/15 14:58:12;;;;;;;;;;;;;;;;;;5076930;28;19908;-69
2023/03/15 15:00:38;;;;;;;;;;;;;;;;;;5076660;28;19951;-70
2023/03/15 15:03:04;;;;;;;;;;;;;;;;;;5094409;28;19912;-70
2023/03/15 15:05:30;;;;;;;;;;;;;;;;;;5077028;28;19919;-69
2023/03/15 15:07:56;;;;;;;;;;;;;;;;;;5094564;28;19908;-69
2023/03/15 15:10:22;;;;;;;;;;;;;;;;;;5094397;28;19909;-69
2023/03/15 15:12:48;;;;;;;;;;;;;;;;;;5094788;28;20289;-69
2023/03/15 15:15:14;;;;;;;;;;;;;;;;;;5075633;28;20260;-70
2023/03/15 15:17:40;;;;;;;;;;;;;;;;;;5076950;28;19912;-71
2023/03/15 15:20:06;;;;;;;;;;;;;;;;;;5094781;28;19909;-69
2023/03/15 15:22:32;;;;;;;;;;;;;;;;;;5094688;28;20257;-69
2023/03/15 15:24:58;;;;;;;;;;;;;;;;;;5094837;28;19912;-69
2023/03/15 15:27:24;;;;;;;;;;;;;;;;;;5094502;28;19934;-70
2023/03/15 15:29:51;;;;;;;;;;;;;;;;;;5077031;28;20335;-69
2023/03/15 15:32:17;;;;;;;;;;;;;;;;;;5076160;28;20268;-70
2023/03/15 15:34:43;;;;;;;;;;;;;;;;;;5094425;28;19942;-70
2023/03/15 15:37:09;;;;;;;;;;;;;;;;;;5094466;28;19916;-69
2023/03/15 15:39:35;;;;;;;;;;;;;;;;;;5075695;28;19908;-69
2023/03/15 15:42:01;;;;;;;;;;;;;;;;;;5092563;28;19969;-71
2023/03/15 15:44:27;;;;;;;;;;;;;;;;;;5076473;28;19908;-69
2023/03/15 15:46:53;;;;;;;;;;;;;;;;;;5094135;28;20019;-70
2023/03/15 15:49:19;;;;;;;;;;;;;;;;;;5076106;28;19908;-70
2023/03/15 15:51:45;;;;;;;;;;;;;;;;;;5094570;28;19908;-70
2023/03/15 15:54:11;;;;;;;;;;;;;;;;;;5076053;28;20057;-70
2023/03/15 15:56:43;;;;;;;;;;;;;;;;;;5094227;28;19999;-70
2023/03/15 15:59:08;;;;;;;;;;;;;;;;;;5093974;28;19908;-70
2023/03/15 16:01:34;;;;;;;;;;;;;;;;;;5076280;28;19919;-70
2023/03/15 16:04:01;;;;;;;;;;;;;;;;;;5075787;28;19951;-70
2023/03/15 16:06:27;;;;;;;;;;;;;;;;;;5094225;28;19908;-70
2023/03/15 16:08:53;;;;;;;;;;;;;;;;;;5075790;28;20368;-70
2023/03/15 16:11:18;;;;;;;;;;;;;;;;;;5093756;28;19962;-70
2023/03/15 16:13:44;;;;;;;;;;;;;;;;;;5093473;28;19974;-70
2023/03/15 16:16:10;;;;;;;;;;;;;;;;;;5093685;28;19967;-70
2023/03/15 16:18:36;;;;;;;;;;;;;;;;;;5094151;28;19909;-70
2023/03/15 16:21:02;;;;;;;;;;;;;;;;;;5094070;28;19948;-70
2023/03/15 16:23:28;;;;;;;;;;;;;;;;;;5093336;28;19908;-70
2023/03/15 16:25:54;;;;;;;;;;;;;;;;;;5093814;28;19966;-70
2023/03/15 16:28:20;;;;;;;;;;;;;;;;;;5075238;28;19949;-71
2023/03/15 16:30:46;;;;;;;;;;;;;;;;;;5075495;28;19908;-70
2023/03/15 16:33:13;;;;;;;;;;;;;;;;;;5094235;28;19914;-70
2023/03/15 16:35:39;;;;;;;;;;;;;;;;;;5093517;28;19924;-70
2023/03/15 16:38:06;;;;;;;;;;;;;;;;;;5093102;28;20253;-70